createdAt,value
2022-12-05T00:01:20.243Z,11.60
2022-12-05T00:03:59.323Z,11.50
2022-12-05T00:06:35.011Z,11.20
2022-12-05T00:09:09.963Z,12.10
2022-12-05T00:11:46.076Z,12.50
2022-12-05T00:14:19.520Z,12.40
2022-12-05T00:16:53.660Z,10.80
2022-12-05T00:19:27.107Z,11.60
2022-12-05T00:22:00.417Z,10.50
2022-12-05T00:24:33.799Z,11.00
2022-12-05T00:27:07.229Z,10.10
2022-12-05T00:29:40.883Z,10.60
2022-12-05T00:32:14.206Z,11.80
2022-12-05T00:34:47.939Z,11.60
2022-12-05T00:37:21.686Z,12.10
2022-12-05T00:39:55.372Z,12.30
2022-12-05T00:42:29.652Z,12.00
2022-12-05T00:45:03.052Z,12.50
2022-12-05T00:47:38.129Z,12.60
2022-12-05T00:50:12.560Z,11.30
2022-12-05T00:52:45.857Z,11.50
2022-12-05T00:55:19.331Z,12.60
2022-12-05T00:57:52.820Z,11.10
2022-12-05T01:00:26.566Z,10.80
2022-12-05T01:03:01.445Z,12.20
2022-12-05T01:05:37.091Z,12.00
2022-12-05T01:08:10.454Z,12.00
2022-12-05T01:10:43.734Z,10.70
2022-12-05T01:13:17.411Z,10.40
2022-12-05T01:15:50.861Z,11.40
2022-12-05T01:18:25.093Z,11.50
2022-12-05T01:20:58.511Z,11.80
2022-12-05T01:23:32.276Z,10.50
2022-12-05T01:26:10.769Z,11.90
2022-12-05T01:28:45.009Z,12.50
2022-12-05T01:31:24.133Z,12.80
2022-12-05T01:34:00.901Z,11.70
2022-12-05T01:36:35.130Z,12.40
2022-12-05T01:39:08.980Z,12.40
2022-12-05T01:41:45.594Z,11.40
2022-12-05T01:44:54.043Z,12.20
2022-12-05T01:47:30.745Z,10.90
2022-12-05T01:50:05.349Z,11.60
2022-12-05T01:52:40.062Z,11.60
2022-12-05T01:55:17.443Z,12.10
2022-12-05T01:57:51.515Z,11.70
2022-12-05T02:00:25.844Z,12.60
2022-12-05T02:03:01.458Z,14.80
2022-12-05T02:05:36.647Z,10.90
2022-12-05T02:08:13.289Z,12.40
2022-12-05T02:10:49.144Z,12.50
2022-12-05T02:13:45.467Z,12.10
2022-12-05T02:16:30.194Z,13.90
2022-12-05T02:19:18.448Z,11.50
2022-12-05T02:22:11.673Z,11.70
2022-12-05T02:25:24.452Z,12.10
2022-12-05T02:28:21.860Z,10.70
2022-12-05T02:31:00.070Z,11.60
2022-12-05T02:33:42.250Z,10.40
2022-12-05T02:36:24.618Z,12.00
2022-12-05T02:39:06.123Z,10.60
2022-12-05T02:41:47.473Z,11.20
2022-12-05T02:44:24.308Z,10.70
2022-12-05T02:46:58.476Z,10.80
2022-12-05T02:49:35.698Z,10.70
2022-12-05T02:52:14.238Z,12.20
2022-12-05T02:57:24.948Z,11.40
2022-12-05T02:59:58.440Z,11.90
2022-12-05T03:02:35.347Z,11.50
2022-12-05T03:05:21.704Z,12.20
2022-12-05T03:07:59.908Z,11.50
2022-12-05T03:10:38.620Z,10.30
2022-12-05T03:13:17.685Z,10.30
2022-12-05T03:15:54.830Z,9.60
2022-12-05T03:18:32.426Z,10.10
2022-12-05T03:21:13.369Z,9.00
2022-12-05T03:23:51.246Z,9.50
2022-12-05T03:26:35.716Z,9.70
2022-12-05T03:29:20.210Z,9.10
2022-12-05T03:32:03.864Z,9.30
2022-12-05T03:34:49.747Z,8.30
2022-12-05T03:37:29.558Z,8.90
2022-12-05T03:40:13.379Z,10.40
2022-12-05T03:42:55.656Z,9.00
2022-12-05T03:45:36.499Z,9.20
2022-12-05T03:48:16.786Z,8.90
2022-12-05T03:50:52.110Z,9.80
2022-12-05T03:53:30.507Z,8.90
2022-12-05T03:56:07.981Z,8.50
2022-12-05T03:58:45.428Z,8.60
2022-12-05T04:01:21.165Z,9.90
2022-12-05T04:03:59.245Z,9.40
2022-12-05T04:06:36.325Z,8.20
2022-12-05T04:09:17.311Z,9.00
2022-12-05T04:11:56.337Z,9.40
2022-12-05T04:17:09.624Z,8.20
2022-12-05T04:20:05.961Z,8.40
2022-12-05T04:22:40.438Z,10.90
2022-12-05T04:25:35.568Z,9.90
2022-12-05T04:28:23.520Z,10.40
2022-12-05T04:31:04.688Z,9.30
2022-12-05T04:33:44.960Z,9.20
2022-12-05T04:36:23.227Z,9.30
2022-12-05T04:39:01.665Z,9.20
2022-12-05T04:41:39.224Z,10.00
2022-12-05T04:44:17.724Z,8.50
2022-12-05T04:46:55.030Z,8.70
2022-12-05T04:49:32.635Z,9.80
2022-12-05T04:52:10.115Z,7.80
2022-12-05T04:54:48.656Z,8.80
2022-12-05T04:57:26.663Z,8.40
2022-12-05T05:00:00.755Z,8.70
2022-12-05T05:02:42.392Z,9.90
2022-12-05T05:05:18.758Z,8.50
2022-12-05T05:07:56.859Z,8.80
2022-12-05T05:10:41.581Z,9.40
2022-12-05T05:13:15.554Z,8.20
2022-12-05T05:15:49.319Z,9.70
2022-12-05T05:18:23.051Z,9.10
2022-12-05T05:20:56.250Z,8.40
2022-12-05T05:23:29.926Z,9.90
2022-12-05T05:26:03.577Z,10.30
2022-12-05T05:28:37.519Z,8.90
2022-12-05T05:31:11.302Z,9.00
2022-12-05T05:33:45.117Z,9.80
2022-12-05T05:36:19.700Z,9.20
2022-12-05T05:38:55.142Z,9.70
2022-12-05T05:41:31.340Z,10.40
2022-12-05T05:44:05.526Z,9.50
2022-12-05T05:46:39.282Z,9.10
2022-12-05T05:49:13.854Z,8.80
2022-12-05T05:51:47.160Z,7.90
2022-12-05T05:54:20.807Z,9.00
2022-12-05T05:56:54.310Z,8.80
2022-12-05T05:59:27.904Z,8.70
2022-12-05T06:02:01.562Z,9.30
2022-12-05T06:04:36.280Z,10.00
2022-12-05T06:07:09.762Z,8.90
2022-12-05T06:09:43.417Z,9.60
2022-12-05T06:12:17.298Z,9.00
2022-12-05T06:14:52.972Z,8.90
2022-12-05T06:17:26.685Z,8.30
2022-12-05T06:20:00.897Z,9.20
2022-12-05T06:22:34.659Z,9.40
2022-12-05T06:25:09.469Z,9.80
2022-12-05T06:27:43.104Z,9.30
2022-12-05T06:30:18.224Z,8.80
2022-12-05T06:32:51.739Z,9.30
2022-12-05T06:35:25.284Z,9.40
2022-12-05T06:37:58.944Z,9.50
2022-12-05T06:40:32.680Z,10.10
2022-12-05T06:43:06.030Z,9.60
2022-12-05T06:45:41.138Z,9.50
2022-12-05T06:48:15.443Z,9.90
2022-12-05T06:50:53.988Z,10.30
2022-12-05T06:56:03.952Z,9.60
2022-12-05T06:58:37.400Z,10.40
2022-12-05T07:01:32.690Z,10.30
2022-12-05T07:04:08.118Z,10.40
2022-12-05T07:06:46.156Z,9.60
2022-12-05T07:09:45.300Z,10.10
2022-12-05T07:12:20.877Z,10.00
2022-12-05T07:14:54.396Z,9.50
2022-12-05T07:17:27.912Z,9.80
2022-12-05T07:20:02.376Z,10.90
2022-12-05T07:22:37.716Z,10.60
2022-12-05T07:25:12.311Z,10.20
2022-12-05T07:27:46.024Z,9.60
2022-12-05T07:30:20.191Z,11.10
2022-12-05T07:32:54.240Z,10.40
2022-12-05T07:35:27.908Z,9.90
2022-12-05T07:38:01.525Z,9.10
2022-12-05T07:40:35.601Z,10.20
2022-12-05T07:43:09.164Z,8.90
2022-12-05T07:45:42.799Z,10.60
2022-12-05T07:48:18.688Z,11.30
2022-12-05T07:50:52.672Z,9.20
2022-12-05T07:53:26.665Z,10.80
2022-12-05T07:56:02.547Z,10.80
2022-12-05T07:58:37.312Z,10.30
2022-12-05T08:01:12.933Z,10.20
2022-12-05T08:03:47.235Z,10.10
2022-12-05T08:06:22.673Z,9.90
2022-12-05T08:08:56.985Z,10.30
2022-12-05T08:11:32.832Z,9.40
2022-12-05T08:14:07.717Z,9.40
2022-12-05T08:16:41.285Z,10.90
2022-12-05T08:19:18.305Z,10.20
2022-12-05T08:21:52.758Z,10.40
2022-12-05T08:24:26.703Z,11.10
2022-12-05T08:26:59.966Z,9.90
2022-12-05T08:29:33.664Z,10.90
2022-12-05T08:32:07.470Z,10.40
2022-12-05T08:34:41.545Z,10.10
2022-12-05T08:37:14.959Z,9.80
2022-12-05T08:39:48.542Z,9.30
2022-12-05T08:42:21.928Z,10.30
2022-12-05T08:44:55.463Z,11.00
2022-12-05T08:47:29.870Z,9.30
2022-12-05T08:50:04.600Z,9.70
2022-12-05T08:52:38.740Z,10.00
2022-12-05T08:55:13.219Z,9.70
2022-12-05T08:57:46.726Z,9.20
2022-12-05T09:00:22.293Z,9.60
2022-12-05T09:02:56.135Z,9.10
2022-12-05T09:05:30.847Z,10.50
2022-12-05T09:08:05.406Z,9.80
2022-12-05T09:10:40.839Z,10.40
2022-12-05T09:13:14.982Z,11.00
2022-12-05T09:15:48.246Z,10.80
2022-12-05T09:18:21.579Z,10.70
2022-12-05T09:20:55.142Z,11.20
2022-12-05T09:23:28.739Z,10.40
2022-12-05T09:26:03.440Z,11.30
2022-12-05T09:28:37.434Z,10.40
2022-12-05T09:31:13.789Z,11.30
2022-12-05T09:33:50.673Z,11.00
2022-12-05T09:36:25.978Z,12.10
2022-12-05T09:39:02.007Z,11.00
2022-12-05T09:42:13.604Z,10.50
2022-12-05T09:44:57.714Z,12.30
2022-12-05T09:47:47.915Z,10.80
2022-12-05T09:50:28.629Z,10.40
2022-12-05T09:53:12.527Z,11.60
2022-12-05T09:55:54.476Z,11.60
2022-12-05T09:58:38.949Z,11.50
2022-12-05T10:01:26.856Z,12.50
2022-12-05T10:04:19.263Z,11.70
2022-12-05T10:07:03.511Z,11.30
2022-12-05T10:09:55.667Z,11.70
2022-12-05T10:12:46.941Z,11.80
2022-12-05T10:15:29.201Z,12.00
2022-12-05T10:18:11.098Z,10.10
2022-12-05T10:20:49.983Z,11.70
2022-12-05T10:23:56.015Z,12.20
2022-12-05T10:26:23.776Z,11.20
2022-12-05T10:29:04.137Z,13.10
2022-12-05T10:31:41.610Z,12.60
2022-12-05T10:34:23.820Z,11.70
2022-12-05T10:37:03.408Z,13.40
2022-12-05T10:39:37.642Z,12.20
2022-12-05T10:42:18.918Z,13.60
2022-12-05T10:44:57.253Z,11.00
2022-12-05T10:50:10.083Z,12.10
2022-12-05T10:52:43.500Z,12.10
2022-12-05T10:55:21.711Z,11.80
2022-12-05T10:58:16.847Z,11.80
2022-12-05T11:00:53.899Z,11.60
2022-12-05T11:03:31.124Z,12.40
2022-12-05T11:06:19.141Z,12.50
2022-12-05T11:09:05.782Z,14.40
2022-12-05T11:11:40.032Z,10.10
2022-12-05T11:14:27.665Z,12.10
2022-12-05T11:17:04.459Z,12.80
2022-12-05T11:19:40.009Z,13.30
2022-12-05T11:22:20.897Z,13.00
2022-12-05T11:24:55.077Z,13.70
2022-12-05T11:27:33.588Z,13.60
2022-12-05T11:30:21.733Z,13.40
2022-12-05T11:33:12.790Z,15.20
2022-12-05T11:35:47.644Z,12.70
2022-12-05T11:38:26.306Z,12.70
2022-12-05T11:41:12.540Z,13.80
2022-12-05T11:44:05.051Z,12.60
2022-12-05T11:46:48.427Z,14.40
2022-12-05T11:49:58.219Z,13.60
